Active alerts

Gallatin County, MT
  Details for Gallatin County, MT Winter Storm Warning
Gallatin County, MT
  Details for Gallatin County, MT Hydrologic Outlook

Thunder radar more information blitzortung!


Rain radar more information rain snow radar



Nearby METAR Reports

   
KNUQ - Mountain View, CA
Updated: Dec 1 2022 5:55 am
Mostly Cloudy  
Mostly Cloudy  
   Wind: SSE 10.4 mph<br />Gust to 10.4 mph
Wind: SSE 10.4 mph
Gust to 10.4 mph
Temperature: 51.8°F
Dew Point: 42.8°F
Humidity: 72%
Barometer: 29.84 inHg
Clouds: Mostly Cloudy
Visibility: 10 mi
Cloud details: Few Clouds 2000 ft,
Partly Cloudy 3000 ft,
Mostly Cloudy 3600 ft
KNUQ 011355Z AUTO 15009G17KT 10SM FEW020 SCT030 BKN036 11/06 A2984 RMK AO2
KSFO - San Francisco, CA
Updated: Dec 1 2022 5:56 am
Light Rain, Overcast  
Light Rain, Overcast  
   Wind: SSE 15 mph
Wind: SSE 15 mph
Temperature: 51.8°F
Dew Point: 46.4°F
Humidity: 82%
Barometer: 29.8 inHg
Clouds: Overcast
Visibility: 10 mi
Cloud details: Few Clouds 1800 ft,
Mostly Cloudy 2100 ft,
Overcast 2800 ft
KSFO 011356Z 15013KT 10SM -RA FEW018 BKN021 OVC028 11/08 A2980 RMK AO2 RAB54 SLP092 P0000 T01110078
KSJC - San Jose, CA
Updated: Dec 1 2022 5:53 am
Overcast  
Overcast  
   Wind: SSE 18.4 mph<br />Gust to 18.4 mph
Wind: SSE 18.4 mph
Gust to 18.4 mph
Temperature: 51.8°F
Dew Point: 39.2°F
Humidity: 62%
Barometer: 29.85 inHg
Clouds: Overcast
Visibility: 10 mi
Cloud details: Partly Cloudy 3000 ft,
Mostly Cloudy 4600 ft,
Overcast 11000 ft
KSJC 011353Z 15016G24KT 10SM SCT030 BKN046 OVC110 11/04 A2985 RMK AO2 SLP108 T01060044
KOAK - Oakland, CA
Updated: Dec 1 2022 5:53 am
Light Rain, Overcast  
Light Rain, Overcast  
   Wind: SSE 17.3 mph<br />Gust to 17.3 mph
Wind: SSE 17.3 mph
Gust to 17.3 mph
Temperature: 51.8°F
Dew Point: 44.6°F
Humidity: 77%
Barometer: 29.8 inHg
Clouds: Overcast
Visibility: 10 mi
Cloud details: Mostly Cloudy 2800 ft,
Mostly Cloudy 3500 ft,
Overcast 8500 ft
KOAK 011353Z 15015G32KT 10SM -RA BKN028 BKN035 OVC085 11/07 A2980 RMK AO2 PK WND 15037/1340 RAB48 SLP091 P0000 T01110072
KMRY - Monterey, CA
Updated: Dec 1 2022 5:54 am
Mostly Cloudy  
Mostly Cloudy  
   Wind: SE 5.8 mph
Wind: SE 5.8 mph
Temperature: 50°F
Wind Chill: 48.2°F
Dew Point: 39.2°F
Humidity: 67%
Barometer: 29.88 inHg
Clouds: Mostly Cloudy
Visibility: 10 mi
Cloud details: Mostly Cloudy 4400 ft
KMRY 011354Z 14005KT 10SM BKN044 10/04 A2988 RMK AO2 SLP132 T01000044
KWYS - West Yellowstone, MT
Updated: Oct 19 2022 9:00 am
NOT Current
Clear  
Clear  
   Wind: Calm
Wind: Calm
Temperature: 35.6°F
Dew Point: 24.8°F
Humidity: 65%
Barometer: 30.5 inHg
Clouds: Clear
Visibility: 10 mi
Cloud details: Clear ft
KWYS 191600Z AUTO 00000KT 10SM CLR 02/M04 A3050 RMK AO2
KDCA - Washington, DC
Updated: Dec 1 2022 5:52 am
Few Clouds  
Few Clouds  
   Wind: West 9.2 mph
Wind: West 9.2 mph
Temperature: 39.2°F
Wind Chill: 33.8°F
Dew Point: 17.6°F
Humidity: 42%
Barometer: 30.41 inHg
Clouds: Few Clouds
Visibility: 10 mi
Cloud details: Few Clouds 4500 ft,
Few Clouds 25000 ft
KDCA 011352Z 26008KT 10SM FEW045 FEW250 04/M08 A3041 RMK AO2 SLP297 T00391078 $
KIAD - Washington Dulles, VA
Updated: Dec 1 2022 5:52 am
Few Clouds  
Few Clouds  
   Wind: WNW 10.4 mph
Wind: WNW 10.4 mph
Temperature: 37.4°F
Wind Chill: 30.2°F
Dew Point: 17.6°F
Humidity: 45%
Barometer: 30.4 inHg
Clouds: Few Clouds
Visibility: 10 mi
Cloud details: Few Clouds 5000 ft
KIAD 011352Z 30009KT 10SM FEW050 03/M08 A3040 RMK AO2 PK WND 30027/1254 SLP296 T00281083
KMIA - Miami Beach, FL
Updated: Dec 1 2022 5:53 am
Mostly Cloudy  
Mostly Cloudy  
   Wind: varies 4.6 mph
Wind: varies 4.6 mph
Temperature: 78.8°F
Dew Point: 73.4°F
Humidity: 84%
Barometer: 30.19 inHg
Clouds: Mostly Cloudy
Visibility: 10 mi
Cloud details: Partly Cloudy 800 ft,
Mostly Cloudy 1200 ft
KMIA 011353Z VRB04KT 10SM SCT008 BKN012 26/23 A3019 RMK AO2 SLP223 T02560233

Script developed by  Saratoga-weather.org Adapted for the template by  Weerstation Leuven

You find our weather info also at:

Weather Underground

Citizen Weather Observer Program (CWOP)

Equipment we use:

Weather-station
Ambient WS-1400-IP

Weather-program
Meteobridge

Weather-server
TP-LINK TL-MR3020

Ambient WS-1400-IP

Meteobridge

TP-LINK TL-MR3020